Time;durP1;ratioP1;P1;durP2;ratioP2;P2;SDS_P1;SDS_P2;PMS_P1;PMS_P2;Temp;Humidity;BMP_temperature;BMP_pressure;BME280_temperature;BME280_humidity;BME280_pressure;Samples;Min_cycle;Max_cycle;Signal;HPM_P1;HPM_P2
2023/05/28 00:00:46;;;;;;;9.15;2.83;;;11.10;68.70;;;;;;4780468;29;20055;-92
2023/05/28 00:03:17;;;;;;;10.10;3.15;;;11.10;68.00;;;;;;4767507;29;20554;-92
2023/05/28 00:05:45;;;;;;;8.00;2.65;;;11.00;68.40;;;;;;4783885;29;20126;-92
2023/05/28 00:08:13;;;;;;;7.87;2.53;;;11.00;68.70;;;;;;4769376;29;20050;-92
2023/05/28 00:10:41;;;;;;;9.18;2.80;;;10.90;68.90;;;;;;4768720;29;20133;-92
2023/05/28 00:13:09;;;;;;;10.05;2.88;;;10.90;68.90;;;;;;4778958;30;20053;-92
2023/05/28 00:15:36;;;;;;;8.55;2.60;;;11.00;68.90;;;;;;4769814;29;20048;-90
2023/05/28 00:18:04;;;;;;;11.85;2.55;;;10.90;68.90;;;;;;4783597;29;20104;-92
2023/05/28 00:20:32;;;;;;;7.97;2.43;;;10.90;68.60;;;;;;4770989;29;20085;-92
2023/05/28 00:22:59;;;;;;;7.97;2.58;;;10.90;68.70;;;;;;4767284;29;20087;-92
2023/05/28 00:25:26;;;;;;;6.60;2.03;;;11.00;68.70;;;;;;4767813;29;20050;-92
2023/05/28 00:27:53;;;;;;;8.50;2.30;;;11.00;68.40;;;;;;4768853;29;20129;-91
2023/05/28 00:30:23;;;;;;;8.07;2.60;;;11.00;67.90;;;;;;4783817;29;20054;-91
2023/05/28 00:32:50;;;;;;;8.13;2.60;;;11.00;68.50;;;;;;4763356;29;20043;-92
2023/05/28 00:35:17;;;;;;;8.52;2.65;;;10.90;68.70;;;;;;4781970;29;20054;-92
2023/05/28 00:37:44;;;;;;;7.22;2.22;;;10.90;68.70;;;;;;4779401;29;20471;-92
2023/05/28 00:40:15;;;;;;;11.07;2.63;;;10.80;69.00;;;;;;4787084;29;20134;-91
2023/05/28 00:42:43;;;;;;;7.78;2.50;;;10.70;69.00;;;;;;4768664;29;20055;-92
2023/05/28 00:45:11;;;;;;;11.60;2.50;;;10.60;68.90;;;;;;4765700;29;20129;-92
2023/05/28 00:47:40;;;;;;;7.53;2.20;;;10.50;68.90;;;;;;4769655;29;20047;-91
2023/05/28 00:50:08;;;;;;;6.95;2.08;;;10.50;69.00;;;;;;4769437;29;20050;-92
2023/05/28 00:52:36;;;;;;;9.57;2.63;;;10.40;69.20;;;;;;4769336;29;20055;-91
2023/05/28 00:55:14;;;;;;;8.65;2.50;;;10.40;69.50;;;;;;4781307;29;20053;-91
2023/05/28 00:57:42;;;;;;;8.83;2.70;;;10.40;69.60;;;;;;4783066;29;20051;-92
2023/05/28 01:00:11;;;;;;;9.13;2.85;;;10.40;69.50;;;;;;4764823;29;20437;-91
2023/05/28 01:02:38;;;;;;;7.53;2.20;;;10.40;69.70;;;;;;4769513;29;20047;-91
2023/05/28 01:05:05;;;;;;;8.77;2.60;;;10.30;69.70;;;;;;4782147;29;20446;-91
2023/05/28 01:07:32;;;;;;;8.13;2.50;;;10.30;69.90;;;;;;4768947;29;20161;-91
2023/05/28 01:10:00;;;;;;;7.13;2.33;;;10.20;70.00;;;;;;4766582;29;20066;-92
2023/05/28 01:12:28;;;;;;;9.45;2.10;;;10.10;70.10;;;;;;4780696;29;20067;-92
2023/05/28 01:14:55;;;;;;;8.10;2.40;;;10.10;70.20;;;;;;4769099;29;20054;-91
2023/05/28 01:17:23;;;;;;;7.05;1.98;;;10.10;69.80;;;;;;4783779;29;20054;-91
2023/05/28 01:19:51;;;;;;;6.68;2.38;;;10.10;69.80;;;;;;4780291;29;20469;-91
2023/05/28 01:22:22;;;;;;;8.17;2.33;;;10.10;69.90;;;;;;4784088;29;20124;-91
2023/05/28 01:24:51;;;;;;;8.05;2.63;;;10.10;70.00;;;;;;4766541;29;20051;-91
2023/05/28 01:27:19;;;;;;;8.27;2.33;;;10.10;69.90;;;;;;4779882;29;20134;-91
2023/05/28 01:29:46;;;;;;;7.68;2.13;;;10.10;69.90;;;;;;4769969;29;20113;-92
2023/05/28 01:32:13;;;;;;;9.48;2.22;;;10.10;70.20;;;;;;4768678;29;20058;-91
2023/05/28 01:34:40;;;;;;;8.23;2.23;;;10.00;70.50;;;;;;4766679;29;20139;-91
2023/05/28 01:37:09;;;;;;;9.20;2.60;;;10.00;70.60;;;;;;4764161;29;20387;-91
2023/05/28 01:39:42;;;;;;;7.22;2.35;;;10.00;70.30;;;;;;4784594;29;20054;-91
2023/05/28 01:42:11;;;;;;;7.22;2.05;;;10.00;70.40;;;;;;4780777;29;20070;-90
2023/05/28 01:44:41;;;;;;;11.13;2.60;;;10.00;70.40;;;;;;4768261;29;20047;-92
2023/05/28 01:47:09;;;;;;;22.10;2.53;;;10.00;70.60;;;;;;4784772;29;20043;-92
2023/05/28 01:49:38;;;;;;;7.15;2.15;;;9.90;70.60;;;;;;4783883;29;20078;-92
2023/05/28 01:52:08;;;;;;;7.85;2.50;;;9.90;70.30;;;;;;4786787;29;20051;-92
2023/05/28 01:54:35;;;;;;;9.95;2.67;;;9.80;70.50;;;;;;4786424;29;20039;-92
2023/05/28 01:57:03;;;;;;;9.05;2.20;;;9.80;70.60;;;;;;4771428;29;20382;-91
2023/05/28 01:59:30;;;;;;;9.07;2.57;;;9.60;70.80;;;;;;4774720;29;20119;-90
2023/05/28 02:01:57;;;;;;;7.97;2.28;;;9.60;70.90;;;;;;4778607;29;20129;-91
2023/05/28 02:04:25;;;;;;;6.85;2.10;;;9.50;70.60;;;;;;4785353;29;20043;-91
2023/05/28 02:06:52;;;;;;;6.93;2.10;;;9.50;70.80;;;;;;4768913;29;20043;-91
2023/05/28 02:09:19;;;;;;;9.05;2.47;;;9.50;70.40;;;;;;4769991;29;20053;-91
2023/05/28 02:11:46;;;;;;;7.67;2.50;;;9.50;70.80;;;;;;4783032;29;20082;-91
2023/05/28 02:14:16;;;;;;;8.30;2.30;;;9.50;70.50;;;;;;4769874;29;20522;-91
2023/05/28 02:16:48;;;;;;;8.25;2.53;;;9.50;70.40;;;;;;4769971;29;20067;-92
2023/05/28 02:19:17;;;;;;;8.70;2.60;;;9.60;69.90;;;;;;4782020;29;20047;-92
2023/05/28 02:21:45;;;;;;;8.52;2.63;;;9.60;70.00;;;;;;4786895;29;20065;-91
2023/05/28 02:24:12;;;;;;;9.20;2.90;;;9.70;70.50;;;;;;4785690;29;20471;-91
2023/05/28 02:26:41;;;;;;;10.90;3.20;;;9.60;71.00;;;;;;4784009;29;20043;-91
2023/05/28 02:29:08;;;;;;;9.82;2.53;;;9.50;71.20;;;;;;4782547;29;20046;-90
2023/05/28 02:31:35;;;;;;;9.70;3.00;;;9.50;71.40;;;;;;4770841;29;20090;-91
2023/05/28 02:34:02;;;;;;;10.05;2.90;;;9.50;71.60;;;;;;4782997;29;20057;-91
2023/05/28 02:36:30;;;;;;;8.67;2.57;;;9.50;71.20;;;;;;4770169;29;20063;-92
2023/05/28 02:38:57;;;;;;;11.73;3.13;;;9.50;71.10;;;;;;4768558;29;20047;-92
2023/05/28 02:41:25;;;;;;;9.05;2.80;;;9.40;70.90;;;;;;4786526;29;20041;-91
2023/05/28 02:43:55;;;;;;;7.63;2.47;;;9.50;70.90;;;;;;4783499;29;20078;-91
2023/05/28 02:46:22;;;;;;;9.30;2.75;;;9.40;71.50;;;;;;4780213;29;20147;-91
2023/05/28 02:48:49;;;;;;;9.70;2.80;;;9.30;71.80;;;;;;4783727;29;20051;-91
2023/05/28 02:51:18;;;;;;;9.13;2.85;;;9.20;71.90;;;;;;4768595;29;20043;-91
2023/05/28 02:53:54;;;;;;;9.32;3.10;;;9.10;72.50;;;;;;4772172;29;20043;-91
2023/05/28 02:56:23;;;;;;;12.15;3.30;;;9.00;73.00;;;;;;4769962;29;20137;-91
2023/05/28 02:58:52;;;;;;;9.10;3.00;;;9.00;73.00;;;;;;4784703;29;20516;-92
2023/05/28 03:01:22;;;;;;;9.47;2.60;;;8.90;72.70;;;;;;4768037;29;20139;-91
2023/05/28 03:03:50;;;;;;;9.80;3.33;;;8.90;72.40;;;;;;4775432;29;20084;-91
2023/05/28 03:06:29;;;;;;;12.30;3.40;;;8.90;72.50;;;;;;4769969;29;20051;-91
2023/05/28 03:09:07;;;;;;;10.60;3.08;;;8.90;72.90;;;;;;4781074;29;20079;-91
2023/05/28 03:11:37;;;;;;;11.65;3.40;;;8.90;73.70;;;;;;4786191;29;20127;-91
2023/05/28 03:14:05;;;;;;;10.63;3.23;;;8.90;73.60;;;;;;4782005;29;20131;-91
2023/05/28 03:16:36;;;;;;;9.75;2.85;;;9.00;73.50;;;;;;4781421;29;20047;-91
2023/05/28 03:19:16;;;;;;;10.10;2.97;;;9.00;73.80;;;;;;4780885;29;20055;-92
2023/05/28 03:21:44;;;;;;;8.18;2.65;;;9.10;73.30;;;;;;4782221;29;20040;-92
2023/05/28 03:24:12;;;;;;;8.82;3.00;;;9.20;73.50;;;;;;4770569;29;20506;-92
2023/05/28 03:26:43;;;;;;;8.93;2.63;;;9.20;73.60;;;;;;4770268;29;20047;-91
2023/05/28 03:29:14;;;;;;;11.90;2.88;;;9.20;73.80;;;;;;4785181;29;20050;-92
2023/05/28 03:31:47;;;;;;;9.93;3.08;;;9.20;73.80;;;;;;4787347;29;20126;-91
2023/05/28 03:34:20;;;;;;;10.15;3.05;;;9.20;73.70;;;;;;4770972;29;20047;-91
2023/05/28 03:36:47;;;;;;;11.45;2.92;;;9.20;73.80;;;;;;4767314;29;20051;-92
2023/05/28 03:39:16;;;;;;;11.60;2.67;;;9.20;74.00;;;;;;4784013;29;20066;-91
2023/05/28 03:41:46;;;;;;;7.18;2.10;;;9.20;74.10;;;;;;4784734;29;20073;-91
2023/05/28 03:44:13;;;;;;;8.85;2.38;;;9.30;73.70;;;;;;4783417;29;20043;-91
2023/05/28 03:46:41;;;;;;;7.22;2.35;;;9.40;73.80;;;;;;4768560;29;20126;-91
2023/05/28 03:49:08;;;;;;;10.98;2.67;;;9.40;74.00;;;;;;4770181;29;20048;-91
2023/05/28 03:51:36;;;;;;;8.17;2.60;;;9.40;73.90;;;;;;4784884;29;20684;-91
2023/05/28 03:54:03;;;;;;;8.60;2.70;;;9.40;74.10;;;;;;4767976;29;20115;-91
2023/05/28 03:56:35;;;;;;;11.43;3.17;;;9.30;74.20;;;;;;4767737;29;20034;-91
2023/05/28 03:59:07;;;;;;;9.63;2.50;;;9.30;74.50;;;;;;4784115;29;20124;-92
2023/05/28 04:01:36;;;;;;;8.70;3.00;;;9.30;74.10;;;;;;4781810;29;20055;-92
2023/05/28 04:04:09;;;;;;;10.40;2.80;;;9.40;74.20;;;;;;4769925;29;20058;-91
2023/05/28 04:06:37;;;;;;;11.00;3.03;;;9.50;74.40;;;;;;4781373;29;20055;-92
2023/05/28 04:09:05;;;;;;;10.88;3.10;;;9.50;74.50;;;;;;4782072;29;20043;-92
2023/05/28 04:11:34;;;;;;;10.57;2.85;;;9.60;74.70;;;;;;4767101;29;20056;-92
2023/05/28 04:14:12;;;;;;;9.27;3.13;;;9.70;74.70;;;;;;4772115;29;20070;-92
2023/05/28 04:16:42;;;;;;;10.10;3.17;;;9.80;74.90;;;;;;4775282;29;20064;-92
2023/05/28 04:19:11;;;;;;;8.40;3.28;;;9.90;74.30;;;;;;4770495;29;20054;-92
2023/05/28 04:21:41;;;;;;;9.95;3.15;;;9.90;74.90;;;;;;4783506;29;20043;-92
2023/05/28 04:24:09;;;;;;;11.75;2.90;;;10.00;75.10;;;;;;4786205;29;20050;-91
2023/05/28 04:26:37;;;;;;;11.52;2.85;;;10.10;75.20;;;;;;4771090;29;20051;-91
2023/05/28 04:29:07;;;;;;;8.13;2.93;;;10.20;74.80;;;;;;4786063;29;20402;-91
2023/05/28 04:31:34;;;;;;;12.13;3.10;;;10.20;74.70;;;;;;4767127;29;20048;-91
2023/05/28 04:34:10;;;;;;;10.30;3.22;;;10.40;74.70;;;;;;4768091;29;20070;-92
2023/05/28 04:36:37;;;;;;;10.57;3.45;;;10.50;74.30;;;;;;4785630;29;20043;-92
2023/05/28 04:39:04;;;;;;;11.15;3.25;;;10.60;75.00;;;;;;4764619;29;20055;-91
2023/05/28 04:41:32;;;;;;;8.40;2.77;;;10.70;75.40;;;;;;4765045;29;20047;-92
2023/05/28 04:43:59;;;;;;;10.95;3.20;;;11.00;75.00;;;;;;4767667;29;20443;-91
2023/05/28 04:46:29;;;;;;;8.85;2.95;;;11.00;74.60;;;;;;4774325;29;21428;-91
2023/05/28 04:48:57;;;;;;;8.75;2.67;;;11.20;74.00;;;;;;4772472;29;20051;-91
2023/05/28 04:51:26;;;;;;;7.60;2.50;;;11.50;73.50;;;;;;4771631;29;20396;-92
2023/05/28 04:53:53;;;;;;;9.20;2.80;;;11.60;72.80;;;;;;4771236;29;20176;-92
2023/05/28 04:56:20;;;;;;;11.70;2.92;;;11.80;72.10;;;;;;4777559;29;20035;-92
2023/05/28 04:58:48;;;;;;;9.98;3.17;;;12.00;71.30;;;;;;4783000;29;20054;-91
2023/05/28 05:01:22;;;;;;;11.32;3.47;;;11.90;70.90;;;;;;4785923;29;20076;-92
2023/05/28 05:03:49;;;;;;;11.32;3.80;;;11.90;71.50;;;;;;4779046;29;20059;-92
2023/05/28 05:06:16;;;;;;;10.30;3.73;;;12.00;72.00;;;;;;4773908;29;20047;-92
2023/05/28 05:08:43;;;;;;;9.90;2.97;;;12.00;72.30;;;;;;4769282;29;20043;-92
2023/05/28 05:11:13;;;;;;;12.63;3.78;;;12.10;72.60;;;;;;4767023;29;20042;-92
2023/05/28 05:13:40;;;;;;;10.57;3.67;;;12.20;71.10;;;;;;4767421;29;20056;-92
2023/05/28 05:16:07;;;;;;;11.38;3.13;;;12.30;71.10;;;;;;4770369;29;20047;-92
2023/05/28 05:18:34;;;;;;;9.20;3.03;;;12.30;71.80;;;;;;4771868;29;20055;-91
2023/05/28 05:21:04;;;;;;;9.18;3.20;;;12.50;71.20;;;;;;4785191;29;20529;-92
2023/05/28 05:23:32;;;;;;;9.88;3.05;;;12.50;71.10;;;;;;4787025;29;20047;-93
2023/05/28 05:25:59;;;;;;;7.80;3.35;;;12.70;71.30;;;;;;4772247;29;20058;-91
2023/05/28 05:28:26;;;;;;;8.80;3.03;;;12.80;71.10;;;;;;4773791;29;20104;-92
2023/05/28 05:30:53;;;;;;;10.37;3.40;;;13.00;70.30;;;;;;4772821;29;20047;-92
2023/05/28 05:33:23;;;;;;;8.68;3.33;;;13.10;70.30;;;;;;4786109;29;20213;-92
2023/05/28 05:36:28;;;;;;;9.13;3.38;;;13.10;70.10;;;;;;4790379;29;20043;-91
2023/05/28 05:43:37;;;;;;;8.20;3.00;;;13.10;68.70;;;;;;4798557;29;20061;-92
2023/05/28 05:46:04;;;;;;;7.40;2.20;;;13.30;69.40;;;;;;4771400;29;20043;-90
2023/05/28 05:48:33;;;;;;;8.52;2.72;;;13.50;69.10;;;;;;4773843;29;20050;-90
2023/05/28 05:51:02;;;;;;;9.63;2.53;;;13.60;68.20;;;;;;4789011;30;20043;-91
2023/05/28 05:53:29;;;;;;;14.60;3.17;;;13.70;68.60;;;;;;4767100;29;20046;-92
2023/05/28 05:55:57;;;;;;;10.77;2.30;;;13.80;68.20;;;;;;4765103;29;20050;-92
2023/05/28 05:58:24;;;;;;;8.63;2.63;;;13.90;68.90;;;;;;4785541;29;20054;-91
2023/05/28 06:00:52;;;;;;;10.68;3.13;;;14.00;68.10;;;;;;4779450;29;20414;-92
2023/05/28 06:03:20;;;;;;;7.88;2.78;;;14.10;68.20;;;;;;4774180;29;20058;-92
2023/05/28 06:06:06;;;;;;;8.93;3.20;;;14.20;67.60;;;;;;4768066;29;20062;-92
2023/05/28 06:09:12;;;;;;;8.10;2.75;;;14.30;66.50;;;;;;4772802;29;20043;-92
2023/05/28 06:11:51;;;;;;;8.03;2.70;;;14.30;67.40;;;;;;4785462;30;20110;-93
2023/05/28 06:15:26;;;;;;;9.68;2.95;;;14.50;67.50;;;;;;4784005;29;20051;-92
2023/05/28 06:17:54;;;;;;;11.13;3.47;;;14.60;67.60;;;;;;4773816;29;20074;-93
2023/05/28 06:20:22;;;;;;;12.50;4.40;;;14.80;67.60;;;;;;4766984;30;20521;-93
2023/05/28 06:22:50;;;;;;;13.93;4.70;;;14.80;66.60;;;;;;4772800;29;20112;-93
2023/05/28 06:25:18;;;;;;;12.60;4.43;;;14.70;67.30;;;;;;4793371;29;20057;-92
2023/05/28 06:27:46;;;;;;;11.57;4.45;;;14.80;66.60;;;;;;4767498;29;20048;-93
2023/05/28 06:30:14;;;;;;;11.15;3.90;;;14.90;65.40;;;;;;4779239;29;20047;-93
2023/05/28 06:32:42;;;;;;;11.77;4.13;;;14.80;66.10;;;;;;4777650;29;20055;-94
2023/05/28 06:35:09;;;;;;;10.00;4.07;;;14.90;66.20;;;;;;4778837;29;20063;-94
2023/05/28 06:37:37;;;;;;;12.80;4.03;;;15.00;66.20;;;;;;4766744;29;20137;-92
2023/05/28 07:08:51;;;;;;;11.57;3.30;;;16.00;59.80;;;;;;4738652;30;20048;-96
2023/05/28 10:08:40;;;;;;;7.53;2.40;;;20.00;51.10;;;;;;1224310;24;20326;-92
2023/05/28 10:12:19;;;;;;;8.65;2.53;;;20.30;52.30;;;;;;4763496;30;20091;-95
2023/05/28 10:14:48;;;;;;;8.43;2.80;;;20.60;51.00;;;;;;4753451;30;20105;-93
2023/05/28 10:17:17;;;;;;;7.95;2.20;;;20.70;48.60;;;;;;4744678;30;20492;-91
2023/05/28 10:19:50;;;;;;;7.88;2.50;;;20.90;50.10;;;;;;4734425;30;20052;-91
2023/05/28 10:22:20;;;;;;;7.73;2.10;;;20.90;50.40;;;;;;4751752;30;20048;-91
2023/05/28 10:25:00;;;;;;;12.77;2.17;;;21.00;50.20;;;;;;4736619;30;20130;-91
2023/05/28 10:27:34;;;;;;;9.93;2.60;;;21.00;49.10;;;;;;4757082;30;20138;-92
2023/05/28 10:30:05;;;;;;;7.30;2.30;;;21.00;47.60;;;;;;4756453;30;20527;-90
2023/05/28 10:32:58;;;;;;;;;;;;;;;;;;;;;
2023/05/28 10:40:52;;;;;;;;;;;;;;;;;;;;;
2023/05/28 10:44:05;;;;;;;7.90;2.33;;;21.10;48.60;;;;;;4717653;30;20427;-92
2023/05/28 10:46:40;;;;;;;8.85;2.20;;;21.10;49.40;;;;;;4706012;30;20053;-92
2023/05/28 10:49:11;;;;;;;8.02;2.40;;;21.10;48.30;;;;;;4704875;30;20076;-92
2023/05/28 10:51:45;;;;;;;6.83;2.03;;;21.20;48.70;;;;;;4705383;30;20045;-91
2023/05/28 10:54:15;;;;;;;8.85;2.20;;;21.10;47.90;;;;;;4713113;30;20049;-93
2023/05/28 10:57:08;;;;;;;8.00;2.47;;;21.10;47.50;;;;;;4716413;30;20054;-93
2023/05/28 10:59:47;;;;;;;8.77;2.28;;;21.10;48.50;;;;;;4704439;30;20049;-93
2023/05/28 11:02:20;;;;;;;7.53;2.22;;;21.10;49.10;;;;;;4704353;30;20063;-92
2023/05/28 11:04:55;;;;;;;7.57;2.03;;;21.20;49.60;;;;;;4718252;30;20074;-93
2023/05/28 11:07:32;;;;;;;6.55;1.60;;;21.30;49.30;;;;;;4718752;30;20053;-93
2023/05/28 11:10:00;;;;;;;10.68;2.60;;;21.20;48.20;;;;;;4714447;30;20140;-92
2023/05/28 11:12:28;;;;;;;6.20;1.98;;;21.20;47.70;;;;;;4717778;30;20174;-92
2023/05/28 11:14:55;;;;;;;7.72;2.30;;;21.30;48.90;;;;;;4690143;30;20064;-92
2023/05/28 11:17:22;;;;;;;8.30;2.30;;;21.30;47.70;;;;;;4690557;30;20455;-92
2023/05/28 11:19:51;;;;;;;8.50;2.00;;;21.30;50.00;;;;;;4705066;30;20091;-93
2023/05/28 11:22:19;;;;;;;9.57;1.92;;;21.40;46.60;;;;;;4719304;30;20053;-93
2023/05/28 11:25:00;;;;;;;7.15;2.00;;;21.40;47.90;;;;;;4704457;30;20052;-92
2023/05/28 11:27:36;;;;;;;8.38;2.20;;;21.30;49.30;;;;;;4716870;30;20054;-93
2023/05/28 11:30:18;;;;;;;6.53;1.77;;;21.40;47.00;;;;;;4716067;30;20057;-93
2023/05/28 11:33:10;;;;;;;6.65;2.22;;;21.50;47.10;;;;;;4682795;30;20050;-92
2023/05/28 11:35:38;;;;;;;8.07;2.40;;;21.60;48.90;;;;;;4669263;30;20518;-92
2023/05/28 11:38:05;;;;;;;8.65;2.28;;;21.60;47.00;;;;;;4703748;30;20061;-92
2023/05/28 11:40:35;;;;;;;7.47;1.75;;;21.60;47.00;;;;;;4710348;30;20136;-92
2023/05/28 11:43:11;;;;;;;9.63;2.40;;;21.70;47.50;;;;;;4718717;30;20463;-92
2023/05/28 11:45:39;;;;;;;7.32;2.00;;;21.70;46.00;;;;;;4709264;30;20045;-93
2023/05/28 11:48:16;;;;;;;6.85;2.25;;;21.80;46.30;;;;;;4703891;30;20049;-92
2023/05/28 11:50:56;;;;;;;8.98;2.17;;;21.80;46.50;;;;;;4715172;30;20073;-93
2023/05/28 11:53:23;;;;;;;9.18;2.67;;;21.80;47.50;;;;;;4716266;30;20045;-93
2023/05/28 11:55:51;;;;;;;7.13;2.07;;;21.90;46.20;;;;;;4716306;30;20045;-92
2023/05/28 11:58:28;;;;;;;6.47;2.10;;;22.00;49.10;;;;;;4715219;30;20075;-93
2023/05/28 12:01:00;;;;;;;11.77;2.35;;;22.00;45.50;;;;;;4729950;30;20181;-93
2023/05/28 12:03:27;;;;;;;7.32;1.92;;;21.90;46.40;;;;;;4715335;30;20050;-93
2023/05/28 12:06:03;;;;;;;7.10;2.05;;;22.00;45.50;;;;;;4711053;30;20049;-93
2023/05/28 12:08:31;;;;;;;7.00;2.00;;;22.10;44.70;;;;;;4703905;30;20134;-92
2023/05/28 12:11:02;;;;;;;6.55;2.38;;;22.10;46.00;;;;;;4717965;30;20053;-91
2023/05/28 12:13:34;;;;;;;8.10;2.35;;;22.10;45.30;;;;;;4705742;30;20060;-92
2023/05/28 12:16:09;;;;;;;6.63;2.05;;;21.90;44.60;;;;;;4708212;30;20041;-92
2023/05/28 12:18:44;;;;;;;7.50;1.90;;;21.80;44.30;;;;;;4718015;30;20509;-92
2023/05/28 12:21:13;;;;;;;7.60;2.13;;;21.90;44.60;;;;;;4715341;30;20084;-92
2023/05/28 12:23:41;;;;;;;7.75;2.13;;;22.00;44.00;;;;;;4714505;30;20068;-92
2023/05/28 12:26:13;;;;;;;7.43;2.50;;;22.00;43.00;;;;;;4703430;30;20055;-93
2023/05/28 12:28:41;;;;;;;9.27;2.25;;;22.10;44.90;;;;;;4717161;30;20046;-92
2023/05/28 12:31:16;;;;;;;8.45;2.10;;;22.20;42.90;;;;;;4715072;30;20053;-92
2023/05/28 12:33:44;;;;;;;7.03;1.83;;;22.20;45.00;;;;;;4716713;30;20049;-92
2023/05/28 12:36:11;;;;;;;7.85;2.33;;;22.30;44.00;;;;;;4717981;30;20049;-92
2023/05/28 12:38:38;;;;;;;7.72;2.40;;;22.40;42.40;;;;;;4703708;30;20065;-92
2023/05/28 12:41:06;;;;;;;7.70;2.10;;;22.40;42.50;;;;;;4717610;30;20072;-92
2023/05/28 12:43:33;;;;;;;8.50;2.10;;;22.30;45.20;;;;;;4717021;30;20053;-92
2023/05/28 12:46:01;;;;;;;8.00;2.20;;;22.60;43.60;;;;;;4716874;30;20064;-93
2023/05/28 12:48:29;;;;;;;7.50;2.28;;;22.60;43.20;;;;;;4717632;30;20428;-92
2023/05/28 12:50:56;;;;;;;8.00;2.72;;;22.70;44.00;;;;;;4703505;30;20084;-93
2023/05/28 12:53:23;;;;;;;8.13;2.28;;;22.90;43.10;;;;;;4717522;30;20493;-92
2023/05/28 12:55:50;;;;;;;7.03;2.05;;;22.80;43.40;;;;;;4692512;30;20049;-92
2023/05/28 12:58:21;;;;;;;7.60;2.00;;;22.80;43.70;;;;;;4702282;30;20122;-93
2023/05/28 13:00:48;;;;;;;9.13;2.13;;;22.90;44.20;;;;;;4697425;30;20057;-92
2023/05/28 13:03:45;;;;;;;7.60;2.40;;;22.80;42.60;;;;;;4702171;30;20092;-92
2023/05/28 13:06:13;;;;;;;8.98;2.20;;;22.80;42.70;;;;;;4705545;30;20049;-93
2023/05/28 13:08:40;;;;;;;9.77;2.20;;;23.00;43.90;;;;;;4689159;30;20140;-92
2023/05/28 13:11:07;;;;;;;10.47;2.40;;;22.80;43.90;;;;;;4703464;30;20060;-93
2023/05/28 13:13:49;;;;;;;6.57;2.35;;;22.80;44.20;;;;;;4703592;30;20417;-93
2023/05/28 13:16:17;;;;;;;8.07;2.17;;;22.60;44.50;;;;;;4703227;30;20481;-93
2023/05/28 13:18:47;;;;;;;7.75;2.40;;;22.60;44.60;;;;;;4703615;30;20505;-92
2023/05/28 13:21:15;;;;;;;6.20;2.30;;;22.70;44.20;;;;;;4702867;30;20083;-92
2023/05/28 13:23:42;;;;;;;9.00;2.30;;;22.60;44.90;;;;;;4703365;30;20521;-93
2023/05/28 13:26:09;;;;;;;5.75;1.98;;;22.70;44.50;;;;;;4717444;30;20059;-92
2023/05/28 13:28:36;;;;;;;10.27;2.13;;;23.00;43.50;;;;;;4716673;30;20063;-93
2023/05/28 13:31:03;;;;;;;7.95;2.08;;;23.00;43.80;;;;;;4702814;30;20061;-93
2023/05/28 13:33:31;;;;;;;6.75;2.15;;;23.00;44.80;;;;;;4702868;30;20519;-92
2023/05/28 13:35:58;;;;;;;7.00;2.30;;;23.00;45.70;;;;;;4718716;30;20045;-93
2023/05/28 13:38:25;;;;;;;8.05;2.38;;;22.90;43.90;;;;;;4720659;30;20056;-92
2023/05/28 13:40:53;;;;;;;7.38;2.53;;;22.70;44.00;;;;;;4711055;30;20388;-92
2023/05/28 13:43:20;;;;;;;5.93;2.10;;;22.70;44.20;;;;;;4718659;30;20096;-92
2023/05/28 13:45:47;;;;;;;7.32;2.45;;;22.90;46.70;;;;;;4696664;30;20064;-92
2023/05/28 13:48:15;;;;;;;7.63;2.10;;;23.00;44.70;;;;;;4720307;30;20057;-92
2023/05/28 13:50:43;;;;;;;6.30;2.10;;;22.80;43.30;;;;;;4717385;30;20057;-92
2023/05/28 13:53:10;;;;;;;9.38;2.28;;;22.90;45.20;;;;;;4719896;30;20053;-92
2023/05/28 13:55:37;;;;;;;6.78;2.10;;;23.00;43.30;;;;;;4720451;30;20045;-92
2023/05/28 13:58:04;;;;;;;8.30;2.00;;;23.00;44.20;;;;;;4705966;30;20053;-92
2023/05/28 14:00:31;;;;;;;5.93;1.87;;;22.90;42.90;;;;;;4720152;30;20056;-93
2023/05/28 14:03:05;;;;;;;9.55;2.55;;;22.90;43.00;;;;;;4706529;30;20053;-93
2023/05/28 14:05:35;;;;;;;7.72;2.55;;;22.90;44.50;;;;;;4720315;30;20056;-92
2023/05/28 14:08:02;;;;;;;9.82;2.42;;;22.80;43.40;;;;;;4706150;30;20478;-92
2023/05/28 14:10:33;;;;;;;6.38;2.20;;;22.70;45.00;;;;;;4720149;30;20045;-92
2023/05/28 14:13:00;;;;;;;6.67;2.07;;;22.60;44.10;;;;;;4705585;30;20128;-92
2023/05/28 14:15:27;;;;;;;7.40;2.17;;;22.50;44.20;;;;;;4705543;30;20049;-92
2023/05/28 14:17:54;;;;;;;6.95;2.35;;;22.60;44.60;;;;;;4719416;30;20385;-92
2023/05/28 14:20:24;;;;;;;6.93;2.13;;;22.80;43.60;;;;;;4717565;30;20045;-93
2023/05/28 14:22:52;;;;;;;8.38;2.15;;;23.00;44.10;;;;;;4705704;30;20049;-93
2023/05/28 14:25:19;;;;;;;6.97;2.40;;;23.10;44.00;;;;;;4703633;30;20060;-92
2023/05/28 14:27:50;;;;;;;8.45;2.28;;;23.00;43.20;;;;;;4719812;30;20111;-93
2023/05/28 14:30:37;;;;;;;8.57;2.47;;;23.00;43.10;;;;;;4719808;30;20089;-93
2023/05/28 14:33:04;;;;;;;8.07;2.38;;;23.10;42.50;;;;;;4705927;30;20049;-92
2023/05/28 14:35:31;;;;;;;7.65;2.45;;;23.10;43.50;;;;;;4705419;30;20053;-92
2023/05/28 14:37:58;;;;;;;8.20;2.50;;;23.20;43.80;;;;;;4705317;30;20063;-92
2023/05/28 14:40:25;;;;;;;8.05;2.33;;;23.30;42.90;;;;;;4705562;30;20136;-92
2023/05/28 14:42:52;;;;;;;9.27;2.65;;;23.30;43.10;;;;;;4715953;30;20061;-92
2023/05/28 14:45:20;;;;;;;6.55;2.38;;;23.20;42.50;;;;;;4719002;30;20063;-92
2023/05/28 14:47:47;;;;;;;7.60;2.50;;;23.10;42.20;;;;;;4690759;30;20135;-93
2023/05/28 14:50:14;;;;;;;7.83;2.43;;;22.90;42.90;;;;;;4716366;30;20595;-93
2023/05/28 14:52:41;;;;;;;7.88;2.53;;;22.70;42.80;;;;;;4733886;30;20053;-90
2023/05/28 14:55:08;;;;;;;10.48;2.40;;;22.60;44.50;;;;;;4704624;30;20103;-92
2023/05/28 14:57:36;;;;;;;8.20;2.45;;;22.80;44.10;;;;;;4709544;30;20049;-92
2023/05/28 15:00:09;;;;;;;7.88;2.22;;;22.80;43.80;;;;;;4718211;30;20081;-93
2023/05/28 15:02:37;;;;;;;6.73;2.03;;;22.90;44.20;;;;;;4705351;30;20064;-93
2023/05/28 15:05:05;;;;;;;7.65;2.10;;;23.00;42.90;;;;;;4716562;30;20509;-93
2023/05/28 15:07:32;;;;;;;8.30;2.40;;;22.80;42.90;;;;;;4712315;30;20063;-92
2023/05/28 15:09:59;;;;;;;7.55;2.28;;;22.60;44.30;;;;;;4701967;30;20164;-93
2023/05/28 15:12:27;;;;;;;10.02;2.40;;;22.60;43.70;;;;;;4718102;30;20046;-92
2023/05/28 15:14:54;;;;;;;7.57;2.37;;;22.60;44.10;;;;;;4704779;30;20069;-92
2023/05/28 15:17:21;;;;;;;7.57;2.35;;;22.60;43.90;;;;;;4706264;30;20049;-92
2023/05/28 15:19:49;;;;;;;9.57;2.17;;;22.60;44.30;;;;;;4704670;30;20061;-93
2023/05/28 15:22:19;;;;;;;7.60;2.13;;;22.60;43.40;;;;;;4690413;30;20063;-93
2023/05/28 15:24:49;;;;;;;20.10;3.15;;;22.50;42.90;;;;;;4690144;30;20061;-92
2023/05/28 15:27:17;;;;;;;6.23;1.70;;;22.40;44.50;;;;;;4702628;30;20064;-92
2023/05/28 15:29:44;;;;;;;5.95;2.00;;;22.60;44.40;;;;;;4719068;30;20057;-92
2023/05/28 15:32:13;;;;;;;8.60;2.25;;;22.60;43.90;;;;;;4714073;30;20057;-92
2023/05/28 15:34:40;;;;;;;6.70;2.10;;;22.50;45.10;;;;;;4718622;30;20049;-91
2023/05/28 15:37:12;;;;;;;7.05;1.88;;;22.50;43.90;;;;;;4703932;30;20115;-93
2023/05/28 15:39:39;;;;;;;6.00;1.67;;;22.30;43.80;;;;;;4718491;30;20059;-92
2023/05/28 15:42:07;;;;;;;6.90;2.20;;;22.20;44.10;;;;;;4706637;30;20045;-93
2023/05/28 15:44:34;;;;;;;7.72;2.17;;;22.30;44.40;;;;;;4718879;30;20079;-92
2023/05/28 15:47:02;;;;;;;6.95;2.10;;;22.40;44.20;;;;;;4703995;30;20064;-92
2023/05/28 15:49:29;;;;;;;8.35;2.28;;;22.30;43.40;;;;;;4718515;30;20057;-92
2023/05/28 15:51:57;;;;;;;8.17;2.00;;;22.20;43.90;;;;;;4703570;30;20053;-91
2023/05/28 15:54:25;;;;;;;6.43;1.95;;;22.10;44.50;;;;;;4718710;30;20045;-92
2023/05/28 15:56:53;;;;;;;7.35;2.35;;;22.10;43.80;;;;;;4717966;30;20064;-92
2023/05/28 15:59:20;;;;;;;7.80;1.75;;;22.00;44.40;;;;;;4703219;30;20053;-92
2023/05/28 16:01:50;;;;;;;7.22;1.92;;;22.10;44.30;;;;;;4703669;30;20589;-91
2023/05/28 16:04:22;;;;;;;7.20;1.80;;;22.00;44.00;;;;;;4718204;30;20123;-92
2023/05/28 16:06:52;;;;;;;9.48;2.00;;;22.10;44.00;;;;;;4689643;30;20405;-92
2023/05/28 16:09:23;;;;;;;7.63;2.10;;;22.10;43.90;;;;;;4703820;30;20052;-92
2023/05/28 16:12:00;;;;;;;7.47;2.03;;;22.00;44.90;;;;;;4704917;30;20045;-91
2023/05/28 16:14:33;;;;;;;7.55;2.10;;;21.90;43.10;;;;;;4717157;30;20104;-92
2023/05/28 16:17:05;;;;;;;7.53;1.90;;;21.80;43.80;;;;;;4701254;30;20050;-92
2023/05/28 16:19:33;;;;;;;6.95;1.92;;;21.80;44.30;;;;;;4714683;30;20136;-92
2023/05/28 16:22:00;;;;;;;16.10;2.63;;;21.80;43.60;;;;;;4715975;30;20053;-92
2023/05/28 16:24:28;;;;;;;7.63;2.05;;;21.70;44.10;;;;;;4715957;30;20053;-92
2023/05/28 16:26:55;;;;;;;6.82;2.13;;;21.60;44.50;;;;;;4703391;30;20060;-93
2023/05/28 16:29:24;;;;;;;9.87;2.17;;;21.60;44.70;;;;;;4703181;30;20061;-92
2023/05/28 16:31:52;;;;;;;9.77;1.88;;;21.60;45.10;;;;;;4717572;30;20523;-93
2023/05/28 16:34:20;;;;;;;8.60;2.10;;;21.70;45.40;;;;;;4689238;30;20057;-92
2023/05/28 16:36:47;;;;;;;6.03;1.80;;;21.70;45.10;;;;;;4703220;30;20055;-92
2023/05/28 16:39:15;;;;;;;7.07;2.05;;;21.70;45.10;;;;;;4717125;30;20054;-92